Meridian, Pennsylvania
Current Conditions -  °F | °C
As of 12:35 AM on Thursday 27 Nov 2014 (Local Time) from KBTP Reporting Station
Overcast Overcast  
Wind Chill: 32°   Ceiling: 3400
Heat Index: 32°   Visibility: 4mi
Dew Point: 30°   Wind: 0mph
Humidity: 93%   Direction: NA
Pressure: 30.01"   Gusts: NA
Location:  40.9096°N, 79.9361°W
Report Text: KBTP 270535Z AUTO 00000KT 4SM OVC034 00/M01 A3001 RMK AO1
Loading
Personal Weather Stations






























Interactive Weather Map New forecast layout! Learn more

10-Day Weather Forecast

Advertisements
Track Severe Weather on mobile